Main page
METAR-TAF:

METAR-TAF

Airports :

Kingston, Jamaica

Norman Manley International Airport

latitude: 17-56N, longitude: 076-47W, elevation: 3 m

Current weather observation

The report was made 1 hour and 6 minutes ago, at 05:00 UTC
Wind 5 kt from the East
Temperature 28°C
Humidity 74%
Pressure 1012 hPa
Visibility 10 km or more
Few clouds at a height of 2400 ft

METAR: MKJP 240500Z 10005KT 9999 FEW024 28/23 Q1012

Time: 01:06 (06:06 UTC)

Forecast

The report was made 51 minutes ago, at 05:15 UTC
Forecast valid from 24 at 06 UTC to 25 at 06 UTC
Wind 10 kt from the East
Visibility 10 km or more
Few clouds at a height of 2400 ft
Becoming
from 24 at 14 UTC to 24 at 16 UTC
Wind 20 kt from the Southeast
Few clouds at a height of 2200 ft

TAF: MKJP 240515Z 2406/2506 10010KT 9999 FEW024 BECMG 2414/2416 13020KT FEW022

Weather observations and forecasts of more than 4000 airports (METAR and TAF reports).

The available stations are represented by yellow and red dots on the map.

Hover mouse over dot to see the name of the station.

Then click to see weather observations and forecasts.

To change the map : click on the green buttons with a black cross to zoom in, on the green button with a dash to zoom out, or on the green arrows for adjacent maps.


METAR-TAF: